»·PEaware :: N522PM KLAS-KPHX

N522PM :: KLAS-KPHX

FLIGHT INFORMATION

Flight Status: Arrived
Operator: Privately registered:
United States
More flights under this callsign
Pilot: Bruce B. (6887)
Aircraft: Unknown
(E50P)
More flights by this aircraft type
Origin: KLAS McCarran Intl
United States
Destination: KPHX Phoenix Sky Harbor Intl
United States
More flights between these airports :: More routes between these airports
Route: +PRFUM4 DRK COYOT4
File this flight plan on PilotEdge
Remarks:
Altitude:
(Current/Filed)
21,000ft
Speed:
(Current/Filed)
325kts
Departed: 22-Mar-20 11:12 AM
Arrived: 22-Mar-20 12:09 PM
Distance/Time
Traveled:
222nm/0:57
Distance/Time
To Go:
Arrived

Flight Plot

Page will automatically refresh every two minutes.

Flight plan parsing failed; only flown route is shown


Map Options




Map Legend


Flown Route
Filed Route
Departure Airport
Arrival Airport
Navaid (VOR, NDB)
Fix

Horizontal Profiles

Position Reports

Time Latitude Longitude Heading Altitude Ground
Speed
22-Mar-20 10:48 36.099580 -115.160320 123 2186ft 0kts
22-Mar-20 10:49 36.099580 -115.160320 123 2186ft 0kts
22-Mar-20 10:50 36.099580 -115.160320 123 2186ft 0kts
22-Mar-20 10:51 36.099580 -115.160320 123 2186ft 0kts
22-Mar-20 10:52 36.099580 -115.160320 123 2186ft 0kts
22-Mar-20 10:53 36.099580 -115.160320 123 2186ft 0kts
22-Mar-20 10:54 36.099580 -115.160320 123 2186ft 0kts
22-Mar-20 10:55 36.099580 -115.160320 123 2186ft 0kts
22-Mar-20 10:56 36.099580 -115.160320 123 2186ft 0kts
22-Mar-20 10:57 36.099580 -115.160320 123 2186ft 0kts
22-Mar-20 10:58 36.099580 -115.160320 123 2186ft 0kts
22-Mar-20 10:59 36.099580 -115.160320 123 2186ft 0kts
22-Mar-20 11:00 36.099580 -115.160320 123 2186ft 0kts
22-Mar-20 11:01 36.099580 -115.160320 123 2186ft 0kts
22-Mar-20 11:02 36.099580 -115.160320 123 2186ft 0kts
22-Mar-20 11:03 36.099580 -115.160320 123 2186ft 0kts
22-Mar-20 11:04 36.099580 -115.160320 123 2186ft 0kts
22-Mar-20 11:05 36.099580 -115.160320 123 2186ft 0kts
22-Mar-20 11:06 36.099745 -115.160256 60 2186ft 4kts
22-Mar-20 11:07 36.099805 -115.157753 81 2186ft 0kts
22-Mar-20 11:08 36.099805 -115.157753 81 2186ft 0kts
22-Mar-20 11:09 36.099805 -115.157752 81 2186ft 0kts
22-Mar-20 11:10 36.098466 -115.157132 204 2186ft 39kts
22-Mar-20 11:11 36.066614 -115.176761 210 2836ft 176kts
22-Mar-20 11:12 36.019953 -115.206165 217 4700ft 204kts
22-Mar-20 11:13 35.986950 -115.268065 235 6432ft 229kts
22-Mar-20 11:14 35.928490 -115.285464 164 7783ft 240kts
22-Mar-20 11:15 35.867965 -115.253330 130 8732ft 265kts
22-Mar-20 11:16 35.844129 -115.169588 107 10390ft 250kts
22-Mar-20 11:17 35.824690 -115.087661 108 12010ft 258kts
22-Mar-20 11:18 35.827407 -114.995183 87 13727ft 281kts
22-Mar-20 11:19 35.834651 -114.896996 87 15428ft 292kts
22-Mar-20 11:20 35.842093 -114.796388 87 17122ft 295kts
22-Mar-20 11:21 35.849444 -114.695961 88 18778ft 294kts
22-Mar-20 11:22 35.852941 -114.588145 115 19151ft 327kts
22-Mar-20 11:23 35.803250 -114.496318 132 19225ft 321kts
22-Mar-20 11:24 35.754087 -114.405322 130 19226ft 321kts
22-Mar-20 11:25 35.704502 -114.312122 132 20413ft 318kts
22-Mar-20 11:26 35.655874 -114.221171 132 21226ft 329kts
22-Mar-20 11:27 35.604411 -114.124737 132 21228ft 335kts
22-Mar-20 11:28 35.553648 -114.029944 132 21230ft 329kts
22-Mar-20 11:29 35.503563 -113.936839 132 21232ft 326kts
22-Mar-20 11:30 35.453036 -113.843153 132 21236ft 330kts
22-Mar-20 11:31 35.402004 -113.748759 132 21235ft 333kts
22-Mar-20 11:32 35.350583 -113.653915 132 21237ft 335kts
22-Mar-20 11:33 35.298771 -113.558600 132 21239ft 336kts
22-Mar-20 11:34 35.246791 -113.463232 132 21239ft 338kts
22-Mar-20 11:35 35.194334 -113.367272 132 21238ft 339kts
22-Mar-20 11:36 35.141938 -113.271677 132 21241ft 339kts
22-Mar-20 11:37 35.089183 -113.175692 132 21244ft 340kts
22-Mar-20 11:38 35.036345 -113.079823 133 21247ft 340kts
22-Mar-20 11:39 34.983390 -112.984004 133 21250ft 341kts
22-Mar-20 11:40 34.930257 -112.888120 133 21252ft 341kts
22-Mar-20 11:41 34.876914 -112.792122 133 21254ft 342kts
22-Mar-20 11:42 34.823606 -112.696446 133 21255ft 342kts
22-Mar-20 11:43 34.769895 -112.600309 133 21256ft 343kts
22-Mar-20 11:44 34.716237 -112.504525 133 21255ft 343kts
22-Mar-20 11:45 34.649878 -112.428551 151 21256ft 326kts
22-Mar-20 11:46 34.579024 -112.359323 151 21255ft 326kts
22-Mar-20 11:47 34.508241 -112.290273 151 21252ft 327kts
22-Mar-20 11:48 34.435528 -112.226617 175 21213ft 302kts
22-Mar-20 11:49 34.356128 -112.206492 178 19618ft 290kts
22-Mar-20 11:50 34.274585 -112.185747 175 17055ft 306kts
22-Mar-20 11:51 34.191703 -112.164228 174 14359ft 300kts
22-Mar-20 11:52 34.115828 -112.144585 172 11847ft 267kts
22-Mar-20 11:53 34.049249 -112.127486 170 10283ft 231kts
22-Mar-20 11:54 33.985793 -112.121190 180 8552ft 227kts
22-Mar-20 11:55 33.925164 -112.122969 181 6646ft 213kts
22-Mar-20 11:56 33.865162 -112.124855 181 5153ft 209kts
22-Mar-20 11:57 33.807614 -112.126598 181 4165ft 215kts
22-Mar-20 11:58 33.749161 -112.128283 181 4020ft 204kts
22-Mar-20 11:59 33.692391 -112.129951 181 4024ft 199kts
22-Mar-20 12:00 33.641776 -112.131465 181 4020ft 174kts
22-Mar-20 12:01 33.593564 -112.130085 176 3838ft 165kts
22-Mar-20 12:02 33.550332 -112.127425 177 3273ft 146kts
22-Mar-20 12:03 33.512883 -112.123310 171 2990ft 128kts
22-Mar-20 12:04 33.477960 -112.115365 168 2820ft 123kts
22-Mar-20 12:05 33.445664 -112.105681 157 2444ft 117kts
22-Mar-20 12:06 33.431009 -112.073830 102 1905ft 116kts
22-Mar-20 12:07 33.428842 -112.036997 90 1332ft 106kts
22-Mar-20 12:08 33.428164 -112.016628 181 1140ft 6kts
22-Mar-20 12:09 33.427713 -112.020624 261 1140ft 14kts
22-Mar-20 12:10 33.425947 -112.021530 265 1140ft 0kts
22-Mar-20 12:11 33.425947 -112.021530 265 1140ft 0kts

Navigation Log

Ident Type
Flight plan parsing failed, navigation log unavailable